DNO531 LGSA-LGAV
Flight info
| Callsign | DNO531 |
|---|---|
| Flight time | 0h 29m |
| Altitude | 22000 |
| Route | SOKRI UY151 VELOP |
| Aircraft | A320/M-SDE2GHIJ1RTWY/LB1 |
Departure
| Time | 2026-05-06 06:14 |
|---|---|
| Airport | Chania International Airport (LGSA) |
Arrival
| Time | 2026-05-06 06:43 |
|---|---|
| Airport | Athens Eleftherios Venizelos International Airport (LGAV) |
| Time | Latitude | Longitude | Altitude | Speed | Heading |
|---|---|---|---|---|---|
| 2026-05-06 05:48 | 35.53908 | 24.13953 | 498 ft | 0 kts | 20° |
| 2026-05-06 06:01 | 35.53895 | 24.13947 | 488 ft | 4 kts | 26° |
| 2026-05-06 06:02 | 35.53876 | 24.13937 | 491 ft | 4 kts | 22° |
| 2026-05-06 06:02 | 35.53852 | 24.13925 | 487 ft | 3 kts | 21° |
| 2026-05-06 06:02 | 35.53832 | 24.13911 | 492 ft | 4 kts | 71° |
| 2026-05-06 06:02 | 35.53834 | 24.13886 | 492 ft | 4 kts | 117° |
| 2026-05-06 06:03 | 35.53838 | 24.13877 | 494 ft | 0 kts | 111° |
| 2026-05-06 06:06 | 35.53836 | 24.13881 | 495 ft | 2 kts | 111° |
| 2026-05-06 06:07 | 35.53828 | 24.13907 | 493 ft | 5 kts | 112° |
| 2026-05-06 06:07 | 35.53811 | 24.13956 | 496 ft | 7 kts | 113° |
| 2026-05-06 06:07 | 35.53775 | 24.13997 | 495 ft | 8 kts | 174° |
| 2026-05-06 06:07 | 35.53708 | 24.13978 | 498 ft | 11 kts | 191° |
| 2026-05-06 06:08 | 35.53658 | 24.14044 | 496 ft | 12 kts | 112° |
| 2026-05-06 06:08 | 35.53617 | 24.14169 | 494 ft | 19 kts | 112° |
| 2026-05-06 06:08 | 35.53566 | 24.14326 | 492 ft | 21 kts | 111° |
| 2026-05-06 06:08 | 35.53509 | 24.14501 | 497 ft | 23 kts | 112° |
| 2026-05-06 06:09 | 35.53446 | 24.14694 | 493 ft | 25 kts | 112° |
| 2026-05-06 06:09 | 35.53377 | 24.14903 | 497 ft | 27 kts | 112° |
| 2026-05-06 06:09 | 35.53306 | 24.15121 | 496 ft | 27 kts | 112° |
| 2026-05-06 06:09 | 35.53235 | 24.15342 | 496 ft | 29 kts | 111° |
| 2026-05-06 06:10 | 35.53165 | 24.15555 | 495 ft | 23 kts | 112° |
| 2026-05-06 06:10 | 35.53103 | 24.15748 | 488 ft | 25 kts | 111° |
| 2026-05-06 06:10 | 35.53036 | 24.15953 | 496 ft | 27 kts | 111° |
| 2026-05-06 06:10 | 35.52967 | 24.16164 | 494 ft | 24 kts | 111° |
| 2026-05-06 06:11 | 35.52908 | 24.16348 | 495 ft | 24 kts | 112° |
| 2026-05-06 06:11 | 35.52852 | 24.16519 | 495 ft | 15 kts | 111° |
| 2026-05-06 06:11 | 35.52811 | 24.16642 | 493 ft | 17 kts | 112° |
| 2026-05-06 06:11 | 35.52769 | 24.16773 | 495 ft | 12 kts | 111° |
| 2026-05-06 06:12 | 35.52741 | 24.16858 | 491 ft | 8 kts | 115° |
| 2026-05-06 06:12 | 35.52692 | 24.16869 | 498 ft | 9 kts | 200° |
| 2026-05-06 06:12 | 35.52631 | 24.16838 | 493 ft | 10 kts | 202° |
| 2026-05-06 06:12 | 35.52579 | 24.16784 | 495 ft | 10 kts | 275° |
| 2026-05-06 06:13 | 35.52611 | 24.16696 | 497 ft | 12 kts | 293° |
| 2026-05-06 06:13 | 35.52681 | 24.16480 | 499 ft | 57 kts | 292° |
| 2026-05-06 06:13 | 35.52910 | 24.15778 | 488 ft | 117 kts | 291° |
| 2026-05-06 06:13 | 35.53273 | 24.14670 | 513 ft | 159 kts | 292° |
| 2026-05-06 06:14 | 35.53694 | 24.13398 | 1073 ft | 161 kts | 292° |
| 2026-05-06 06:14 | 35.54109 | 24.12125 | 1720 ft | 160 kts | 292° |
| 2026-05-06 06:14 | 35.54535 | 24.10856 | 2373 ft | 161 kts | 294° |
| 2026-05-06 06:14 | 35.54997 | 24.09512 | 2669 ft | 183 kts | 293° |
| 2026-05-06 06:15 | 35.55513 | 24.07982 | 2907 ft | 207 kts | 293° |
| 2026-05-06 06:15 | 35.56251 | 24.06407 | 3454 ft | 216 kts | 317° |
| 2026-05-06 06:15 | 35.57594 | 24.05605 | 4186 ft | 221 kts | 353° |
| 2026-05-06 06:15 | 35.59134 | 24.05731 | 4956 ft | 224 kts | 7° |
| 2026-05-06 06:16 | 35.60681 | 24.05979 | 5784 ft | 225 kts | 8° |
| 2026-05-06 06:16 | 35.62237 | 24.06223 | 6588 ft | 226 kts | 8° |
| 2026-05-06 06:16 | 35.63837 | 24.06151 | 7169 ft | 242 kts | 347° |
| 2026-05-06 06:16 | 35.65510 | 24.05458 | 7522 ft | 266 kts | 342° |
| 2026-05-06 06:17 | 35.67292 | 24.04669 | 8166 ft | 276 kts | 341° |
| 2026-05-06 06:17 | 35.69109 | 24.03856 | 8997 ft | 279 kts | 340° |
| 2026-05-06 06:17 | 35.70939 | 24.03033 | 9876 ft | 280 kts | 340° |
| 2026-05-06 06:17 | 35.72790 | 24.02202 | 10486 ft | 291 kts | 339° |
| 2026-05-06 06:18 | 35.74766 | 24.01315 | 10693 ft | 314 kts | 339° |
| 2026-05-06 06:18 | 35.76900 | 24.00369 | 10867 ft | 336 kts | 342° |
| 2026-05-06 06:18 | 35.79241 | 23.99886 | 11351 ft | 346 kts | 353° |
| 2026-05-06 06:18 | 35.81647 | 23.99600 | 12029 ft | 348 kts | 353° |
| 2026-05-06 06:19 | 35.84070 | 23.99313 | 12741 ft | 351 kts | 353° |
| 2026-05-06 06:19 | 35.86501 | 23.99025 | 13450 ft | 353 kts | 353° |
| 2026-05-06 06:19 | 35.88954 | 23.98737 | 14118 ft | 355 kts | 352° |
| 2026-05-06 06:19 | 35.91429 | 23.98446 | 14723 ft | 357 kts | 352° |
| 2026-05-06 06:20 | 35.93909 | 23.98157 | 15291 ft | 360 kts | 352° |
| 2026-05-06 06:20 | 35.96415 | 23.97866 | 15855 ft | 363 kts | 352° |
| 2026-05-06 06:20 | 35.98933 | 23.97576 | 16408 ft | 365 kts | 352° |
| 2026-05-06 06:20 | 36.01476 | 23.97282 | 16978 ft | 368 kts | 352° |
| 2026-05-06 06:21 | 36.04040 | 23.96984 | 17544 ft | 371 kts | 352° |
| 2026-05-06 06:21 | 36.06631 | 23.96681 | 18115 ft | 374 kts | 352° |
| 2026-05-06 06:21 | 36.09238 | 23.96378 | 18633 ft | 378 kts | 352° |
| 2026-05-06 06:21 | 36.11857 | 23.96073 | 19153 ft | 380 kts | 352° |
| 2026-05-06 06:22 | 36.14502 | 23.95765 | 19664 ft | 383 kts | 352° |
| 2026-05-06 06:22 | 36.17165 | 23.95453 | 20186 ft | 386 kts | 352° |
| 2026-05-06 06:22 | 36.19846 | 23.95141 | 20694 ft | 388 kts | 352° |
| 2026-05-06 06:22 | 36.22542 | 23.94826 | 21179 ft | 390 kts | 352° |
| 2026-05-06 06:23 | 36.25248 | 23.94511 | 21647 ft | 393 kts | 352° |
| 2026-05-06 06:23 | 36.27980 | 23.94191 | 22013 ft | 395 kts | 352° |
| 2026-05-06 06:23 | 36.30727 | 23.93868 | 22098 ft | 401 kts | 352° |
| 2026-05-06 06:23 | 36.33551 | 23.93534 | 22106 ft | 414 kts | 352° |
| 2026-05-06 06:24 | 36.36453 | 23.93191 | 22100 ft | 422 kts | 352° |
| 2026-05-06 06:24 | 36.39384 | 23.92848 | 22101 ft | 424 kts | 352° |
| 2026-05-06 06:24 | 36.42323 | 23.92505 | 22102 ft | 424 kts | 352° |
| 2026-05-06 06:24 | 36.45260 | 23.92161 | 22103 ft | 424 kts | 352° |
| 2026-05-06 06:25 | 36.48190 | 23.91818 | 22098 ft | 424 kts | 352° |
| 2026-05-06 06:25 | 36.51127 | 23.91473 | 22098 ft | 424 kts | 352° |
| 2026-05-06 06:25 | 36.56999 | 23.90781 | 22103 ft | 424 kts | 352° |
| 2026-05-06 06:26 | 36.59935 | 23.90432 | 22090 ft | 424 kts | 352° |
| 2026-05-06 06:26 | 36.62870 | 23.90081 | 22100 ft | 423 kts | 352° |
| 2026-05-06 06:26 | 36.65804 | 23.89733 | 22103 ft | 423 kts | 352° |
| 2026-05-06 06:26 | 36.68737 | 23.89388 | 22109 ft | 423 kts | 352° |
| 2026-05-06 06:27 | 36.71669 | 23.89043 | 22116 ft | 423 kts | 352° |
| 2026-05-06 06:27 | 36.74598 | 23.88697 | 22106 ft | 423 kts | 352° |
| 2026-05-06 06:27 | 36.77558 | 23.88346 | 22112 ft | 422 kts | 352° |
| 2026-05-06 06:27 | 36.80493 | 23.87999 | 22096 ft | 422 kts | 352° |
| 2026-05-06 06:28 | 36.83395 | 23.87657 | 22088 ft | 412 kts | 352° |
| 2026-05-06 06:28 | 36.86157 | 23.87339 | 22087 ft | 397 kts | 351° |
| 2026-05-06 06:28 | 36.88924 | 23.87017 | 22099 ft | 394 kts | 351° |
| 2026-05-06 06:28 | 36.91657 | 23.86694 | 21616 ft | 396 kts | 351° |
| 2026-05-06 06:29 | 36.94368 | 23.86371 | 20803 ft | 396 kts | 351° |
| 2026-05-06 06:29 | 36.97109 | 23.86043 | 20088 ft | 394 kts | 352° |
| 2026-05-06 06:29 | 36.99833 | 23.85717 | 19439 ft | 392 kts | 352° |
| 2026-05-06 06:29 | 37.02565 | 23.85387 | 18815 ft | 389 kts | 352° |
| 2026-05-06 06:30 | 37.05249 | 23.85063 | 18196 ft | 386 kts | 352° |
| 2026-05-06 06:30 | 37.07916 | 23.84743 | 17547 ft | 383 kts | 352° |
| 2026-05-06 06:30 | 37.10561 | 23.84426 | 16930 ft | 380 kts | 352° |
| 2026-05-06 06:30 | 37.13182 | 23.84113 | 16288 ft | 378 kts | 352° |
| 2026-05-06 06:31 | 37.15793 | 23.83800 | 15666 ft | 375 kts | 352° |
| 2026-05-06 06:31 | 37.18361 | 23.83492 | 14760 ft | 367 kts | 352° |
| 2026-05-06 06:31 | 37.20889 | 23.83192 | 13675 ft | 363 kts | 352° |
| 2026-05-06 06:31 | 37.23380 | 23.82894 | 12513 ft | 358 kts | 352° |
| 2026-05-06 06:32 | 37.25817 | 23.82770 | 12040 ft | 338 kts | 358° |
| 2026-05-06 06:32 | 37.28088 | 23.82766 | 11697 ft | 317 kts | 358° |
| 2026-05-06 06:32 | 37.30211 | 23.82779 | 11552 ft | 294 kts | 358° |
| 2026-05-06 06:32 | 37.32214 | 23.82794 | 11132 ft | 285 kts | 358° |
| 2026-05-06 06:33 | 37.34182 | 23.82809 | 10585 ft | 281 kts | 359° |
| 2026-05-06 06:33 | 37.36132 | 23.82823 | 10022 ft | 279 kts | 359° |
| 2026-05-06 06:33 | 37.38070 | 23.82834 | 9394 ft | 277 kts | 359° |
| 2026-05-06 06:33 | 37.39996 | 23.82844 | 8779 ft | 276 kts | 359° |
| 2026-05-06 06:34 | 37.41905 | 23.82856 | 8181 ft | 274 kts | 359° |
| 2026-05-06 06:34 | 37.43786 | 23.82870 | 7981 ft | 271 kts | 359° |
| 2026-05-06 06:34 | 37.45692 | 23.82883 | 7761 ft | 275 kts | 359° |
| 2026-05-06 06:34 | 37.47612 | 23.82896 | 7518 ft | 275 kts | 359° |
| 2026-05-06 06:35 | 37.49522 | 23.82906 | 7271 ft | 274 kts | 359° |
| 2026-05-06 06:35 | 37.51423 | 23.82915 | 7028 ft | 273 kts | 359° |
| 2026-05-06 06:35 | 37.53320 | 23.82927 | 6787 ft | 272 kts | 359° |
| 2026-05-06 06:35 | 37.55208 | 23.82942 | 6546 ft | 272 kts | 359° |
| 2026-05-06 06:36 | 37.57098 | 23.82957 | 6296 ft | 271 kts | 359° |
| 2026-05-06 06:36 | 37.58985 | 23.82970 | 6041 ft | 271 kts | 359° |
| 2026-05-06 06:36 | 37.60867 | 23.82982 | 5797 ft | 269 kts | 359° |
| 2026-05-06 06:36 | 37.62728 | 23.82994 | 5555 ft | 265 kts | 359° |
| 2026-05-06 06:37 | 37.64577 | 23.83005 | 5354 ft | 259 kts | 359° |
| 2026-05-06 06:37 | 37.66338 | 23.83017 | 5161 ft | 255 kts | 359° |
| 2026-05-06 06:37 | 37.68094 | 23.83026 | 4963 ft | 250 kts | 359° |
| 2026-05-06 06:37 | 37.69815 | 23.83034 | 4765 ft | 245 kts | 358° |
| 2026-05-06 06:38 | 37.71522 | 23.83042 | 4556 ft | 239 kts | 358° |
| 2026-05-06 06:38 | 37.73164 | 23.83052 | 4354 ft | 234 kts | 358° |
| 2026-05-06 06:38 | 37.74774 | 23.83062 | 4123 ft | 229 kts | 358° |
| 2026-05-06 06:38 | 37.76351 | 23.83071 | 3867 ft | 222 kts | 359° |
| 2026-05-06 06:39 | 37.77854 | 23.83081 | 3614 ft | 212 kts | 359° |
| 2026-05-06 06:39 | 37.79295 | 23.83091 | 3395 ft | 200 kts | 359° |
| 2026-05-06 06:39 | 37.80190 | 23.83210 | 3236 ft | 193 kts | 12° |
| 2026-05-06 06:39 | 37.81738 | 23.84254 | 2918 ft | 187 kts | 36° |
| 2026-05-06 06:40 | 37.82428 | 23.84907 | 2757 ft | 187 kts | 35° |
| 2026-05-06 06:40 | 37.83461 | 23.85885 | 2509 ft | 184 kts | 35° |
| 2026-05-06 06:40 | 37.84473 | 23.86844 | 2268 ft | 180 kts | 36° |
| 2026-05-06 06:40 | 37.85461 | 23.87780 | 2033 ft | 175 kts | 36° |
| 2026-05-06 06:41 | 37.86402 | 23.88673 | 1810 ft | 163 kts | 35° |
| 2026-05-06 06:41 | 37.87279 | 23.89505 | 1614 ft | 154 kts | 36° |
| 2026-05-06 06:41 | 37.88123 | 23.90306 | 1396 ft | 149 kts | 36° |
| 2026-05-06 06:41 | 37.88950 | 23.91090 | 1199 ft | 147 kts | 36° |
| 2026-05-06 06:42 | 37.89766 | 23.91866 | 1013 ft | 147 kts | 37° |
| 2026-05-06 06:42 | 37.90580 | 23.92641 | 820 ft | 146 kts | 37° |
| 2026-05-06 06:42 | 37.91389 | 23.93411 | 629 ft | 145 kts | 37° |
| 2026-05-06 06:42 | 37.92193 | 23.94181 | 416 ft | 144 kts | 37° |
| 2026-05-06 06:43 | 37.92987 | 23.94933 | 301 ft | 133 kts | 37° |
| 2026-05-06 06:43 | 37.93614 | 23.95527 | 282 ft | 89 kts | 37° |
| 2026-05-06 06:43 | 37.93974 | 23.95867 | 281 ft | 44 kts | 36° |
| 2026-05-06 06:43 | 37.94199 | 23.96002 | 285 ft | 30 kts | 7° |
| 2026-05-06 06:44 | 37.94280 | 23.96015 | 295 ft | 5 kts | 7° |
| 2026-05-06 06:44 | 37.94303 | 23.96012 | 293 ft | 1 kts | 341° |
| 2026-05-06 06:44 | 37.94304 | 23.96011 | 294 ft | 1 kts | 339° |
| 2026-05-06 06:44 | 37.94314 | 23.96004 | 297 ft | 1 kts | 330° |
| 2026-05-06 06:45 | 37.94332 | 23.95975 | 299 ft | 6 kts | 293° |
| 2026-05-06 06:45 | 37.94319 | 23.95916 | 299 ft | 9 kts | 223° |
| 2026-05-06 06:45 | 37.94234 | 23.95835 | 298 ft | 18 kts | 216° |
| 2026-05-06 06:45 | 37.94127 | 23.95734 | 298 ft | 21 kts | 216° |
| 2026-05-06 06:46 | 37.94005 | 23.95619 | 299 ft | 23 kts | 217° |
| 2026-05-06 06:46 | 37.93879 | 23.95498 | 299 ft | 17 kts | 218° |
| 2026-05-06 06:46 | 37.93856 | 23.95409 | 298 ft | 12 kts | 298° |
| 2026-05-06 06:46 | 37.93885 | 23.95318 | 300 ft | 12 kts | 258° |
| 2026-05-06 06:47 | 37.93853 | 23.95212 | 301 ft | 14 kts | 243° |
| 2026-05-06 06:47 | 37.93774 | 23.95126 | 301 ft | 16 kts | 217° |
| 2026-05-06 06:47 | 37.93676 | 23.95032 | 300 ft | 19 kts | 217° |
| 2026-05-06 06:47 | 37.93614 | 23.94974 | 301 ft | 5 kts | 218° |
| 2026-05-06 06:48 | 37.93621 | 23.94936 | 301 ft | 5 kts | 302° |
| 2026-05-06 06:48 | 37.93645 | 23.94896 | 303 ft | 4 kts | 306° |
| 2026-05-06 06:48 | 37.93655 | 23.94879 | 302 ft | 0 kts | 306° |